createdAt,value
2022-12-12T00:01:33.686Z,5.13
2022-12-12T00:04:02.821Z,6.07
2022-12-12T00:06:31.129Z,6.60
2022-12-12T00:08:59.896Z,6.03
2022-12-12T00:11:30.167Z,6.72
2022-12-12T00:13:58.578Z,7.13
2022-12-12T00:16:29.391Z,6.95
2022-12-12T00:18:57.847Z,8.30
2022-12-12T00:21:28.660Z,6.47
2022-12-12T00:23:57.295Z,6.22
2022-12-12T00:26:27.264Z,4.95
2022-12-12T00:28:57.300Z,4.85
2022-12-12T00:31:25.555Z,4.72
2022-12-12T00:33:53.558Z,4.40
2022-12-12T00:36:24.010Z,4.80
2022-12-12T00:38:52.612Z,5.20
2022-12-12T00:41:21.435Z,7.13
2022-12-12T00:43:49.494Z,4.90
2022-12-12T00:46:21.087Z,2.88
2022-12-12T00:48:49.178Z,4.10
2022-12-12T00:51:19.102Z,4.55
2022-12-12T00:53:47.334Z,5.95
2022-12-12T00:56:16.464Z,5.07
2022-12-12T00:58:44.459Z,4.15
2022-12-12T01:01:14.585Z,4.20
2022-12-12T01:03:45.270Z,4.68
2022-12-12T01:06:13.408Z,4.45
2022-12-12T01:08:41.825Z,4.50
2022-12-12T01:11:12.355Z,4.10
2022-12-12T01:13:41.430Z,2.55
2022-12-12T01:16:09.987Z,2.85
2022-12-12T01:18:37.981Z,3.08
2022-12-12T01:21:09.834Z,3.60
2022-12-12T01:23:38.225Z,2.72
2022-12-12T01:26:08.810Z,2.90
2022-12-12T01:28:37.116Z,2.63
2022-12-12T01:31:05.523Z,1.98
2022-12-12T01:33:34.156Z,3.05
2022-12-12T01:36:02.196Z,2.25
2022-12-12T01:38:32.056Z,2.83
2022-12-12T01:40:59.995Z,3.22
2022-12-12T01:43:30.405Z,3.35
2022-12-12T01:46:29.287Z,11.65
2022-12-12T01:49:00.938Z,2.67
2022-12-12T01:51:31.259Z,1.88
2022-12-12T01:54:05.104Z,2.60
2022-12-12T01:56:34.110Z,2.08
2022-12-12T01:59:06.049Z,2.50
2022-12-12T02:01:36.141Z,2.35
2022-12-12T02:04:05.127Z,3.58
2022-12-12T02:06:33.509Z,1.98
2022-12-12T02:09:07.499Z,2.08
2022-12-12T02:11:43.499Z,2.08
2022-12-12T02:14:13.689Z,2.60
2022-12-12T02:17:05.778Z,2.53
2022-12-12T02:20:06.368Z,3.55
2022-12-12T02:23:01.078Z,2.75
2022-12-12T02:25:57.968Z,4.22
2022-12-12T02:28:48.000Z,1.90
2022-12-12T02:31:24.152Z,2.28
2022-12-12T02:33:57.798Z,1.67
2022-12-12T02:36:36.027Z,2.17
2022-12-12T02:39:08.390Z,1.90
2022-12-12T02:41:41.470Z,2.83
2022-12-12T02:44:17.440Z,2.20
2022-12-12T02:46:53.347Z,2.78
2022-12-12T02:49:26.189Z,2.88
2022-12-12T02:51:55.336Z,4.20
2022-12-12T02:54:23.889Z,2.33
2022-12-12T02:56:54.377Z,4.05
2022-12-12T02:59:28.470Z,3.17
2022-12-12T03:02:32.071Z,2.90
2022-12-12T03:05:45.478Z,3.60
2022-12-12T03:08:29.179Z,4.03
2022-12-12T03:11:00.088Z,4.25
2022-12-12T03:13:36.499Z,3.42
2022-12-12T03:16:14.549Z,2.90
2022-12-12T03:18:49.037Z,3.45
2022-12-12T03:21:23.077Z,5.25
2022-12-12T03:23:54.238Z,3.13
2022-12-12T03:26:25.769Z,3.17
2022-12-12T03:28:58.680Z,3.28
2022-12-12T03:31:31.819Z,3.45
2022-12-12T03:34:03.522Z,3.30
2022-12-12T03:36:37.679Z,5.03
2022-12-12T03:39:10.578Z,4.20
2022-12-12T03:41:42.692Z,3.20
2022-12-12T03:44:16.590Z,3.17
2022-12-12T03:46:51.918Z,2.78
2022-12-12T03:49:25.109Z,7.47
2022-12-12T03:51:59.087Z,3.20
2022-12-12T03:54:33.601Z,2.40
2022-12-12T03:57:08.092Z,2.80
2022-12-12T03:59:39.838Z,3.38
2022-12-12T04:02:15.901Z,2.45
2022-12-12T04:04:50.386Z,4.40
2022-12-12T04:07:24.557Z,3.65
2022-12-12T04:10:11.772Z,2.88
2022-12-12T04:13:03.716Z,2.83
2022-12-12T04:15:54.038Z,3.95
2022-12-12T04:18:30.756Z,3.20
2022-12-12T04:21:26.567Z,2.65
2022-12-12T04:24:03.227Z,2.92
2022-12-12T04:26:42.243Z,3.42
2022-12-12T04:29:35.159Z,2.15
2022-12-12T04:32:10.471Z,3.05
2022-12-12T04:34:42.807Z,3.22
2022-12-12T04:37:15.598Z,4.28
2022-12-12T04:39:49.696Z,3.13
2022-12-12T04:42:21.856Z,3.38
2022-12-12T04:44:52.936Z,4.72
2022-12-12T04:47:22.238Z,3.80
2022-12-12T04:49:52.360Z,4.10
2022-12-12T04:52:23.927Z,4.47
2022-12-12T04:55:01.266Z,4.00
2022-12-12T04:57:33.707Z,3.80
2022-12-12T05:00:02.166Z,3.22
2022-12-12T05:02:44.594Z,5.45
2022-12-12T05:05:19.735Z,4.30
2022-12-12T05:07:55.471Z,3.90
2022-12-12T05:10:25.668Z,2.95
2022-12-12T05:12:59.550Z,5.32
2022-12-12T05:15:29.731Z,6.88
2022-12-12T05:18:02.269Z,4.32
2022-12-12T05:20:30.478Z,3.60
2022-12-12T05:22:58.562Z,4.35
2022-12-12T05:25:27.996Z,4.72
2022-12-12T05:27:56.051Z,2.92
2022-12-12T05:30:24.422Z,6.00
2022-12-12T05:32:53.250Z,3.67
2022-12-12T05:35:22.080Z,3.72
2022-12-12T05:37:52.094Z,3.40
2022-12-12T05:40:24.270Z,4.78
2022-12-12T05:42:55.055Z,4.68
2022-12-12T05:45:23.523Z,2.75
2022-12-12T05:47:51.803Z,3.25
2022-12-12T05:50:20.644Z,5.65
2022-12-12T05:52:49.889Z,4.45
2022-12-12T05:55:18.452Z,3.97
2022-12-12T05:57:46.637Z,4.30
2022-12-12T06:00:17.261Z,6.75
2022-12-12T06:02:45.833Z,6.05
2022-12-12T06:05:15.153Z,6.30
2022-12-12T06:07:45.196Z,4.13
2022-12-12T06:10:14.080Z,6.18
2022-12-12T06:12:42.391Z,5.10
2022-12-12T06:15:11.599Z,4.60
2022-12-12T06:17:41.807Z,4.32
2022-12-12T06:20:10.832Z,5.55
2022-12-12T06:22:39.163Z,5.30
2022-12-12T06:25:09.351Z,5.70
2022-12-12T06:27:37.634Z,4.65
2022-12-12T06:30:07.376Z,5.88
2022-12-12T06:32:35.775Z,5.82
2022-12-12T06:35:06.687Z,5.75
2022-12-12T06:37:35.386Z,5.57
2022-12-12T06:40:04.640Z,3.95
2022-12-12T06:42:33.289Z,3.75
2022-12-12T06:45:01.943Z,2.55
2022-12-12T06:47:30.307Z,5.85
2022-12-12T06:49:58.541Z,3.40
2022-12-12T06:52:28.461Z,2.88
2022-12-12T06:54:56.889Z,3.10
2022-12-12T06:57:25.190Z,3.95
2022-12-12T06:59:53.650Z,3.75
2022-12-12T07:02:29.325Z,3.67
2022-12-12T07:07:27.888Z,4.40
2022-12-12T07:09:56.111Z,4.00
2022-12-12T07:12:24.471Z,10.68
2022-12-12T07:14:53.583Z,5.20
2022-12-12T07:17:23.012Z,6.15
2022-12-12T07:19:51.588Z,4.43
2022-12-12T07:22:19.777Z,5.30
2022-12-12T07:24:50.797Z,4.68
2022-12-12T07:27:21.829Z,4.05
2022-12-12T07:29:50.405Z,4.57
2022-12-12T07:32:18.598Z,3.35
2022-12-12T07:34:46.838Z,4.85
2022-12-12T07:37:15.261Z,5.32
2022-12-12T07:39:44.072Z,4.35
2022-12-12T07:42:13.909Z,4.35
2022-12-12T07:44:42.193Z,4.30
2022-12-12T07:47:11.882Z,6.20
2022-12-12T07:49:40.189Z,5.15
2022-12-12T07:52:08.569Z,5.80
2022-12-12T07:54:36.901Z,6.53
2022-12-12T07:57:05.033Z,5.32
2022-12-12T07:59:34.818Z,7.25
2022-12-12T08:02:03.383Z,5.53
2022-12-12T08:04:32.312Z,4.72
2022-12-12T08:07:05.445Z,4.63
2022-12-12T08:09:37.457Z,5.22
2022-12-12T08:12:06.687Z,6.30
2022-12-12T08:14:37.572Z,3.70
2022-12-12T08:17:05.908Z,5.68
2022-12-12T08:19:34.356Z,6.13
2022-12-12T08:22:02.761Z,3.85
2022-12-12T08:24:31.196Z,4.10
2022-12-12T08:26:59.474Z,4.63
2022-12-12T08:29:28.025Z,6.78
2022-12-12T08:31:58.156Z,5.47
2022-12-12T08:34:26.484Z,5.13
2022-12-12T08:36:55.466Z,6.57
2022-12-12T08:39:23.897Z,9.52
2022-12-12T08:41:52.443Z,7.95
2022-12-12T08:44:21.709Z,6.03
2022-12-12T08:46:50.676Z,5.70
2022-12-12T08:49:20.722Z,4.55
2022-12-12T08:51:49.019Z,5.45
2022-12-12T08:54:17.598Z,5.18
2022-12-12T08:56:45.726Z,4.75
2022-12-12T08:59:14.309Z,5.32
2022-12-12T09:01:42.798Z,5.45
2022-12-12T09:04:11.163Z,5.60
2022-12-12T09:06:41.197Z,8.02
2022-12-12T09:09:09.450Z,5.07
2022-12-12T09:11:37.771Z,5.13
2022-12-12T09:14:05.954Z,4.32
2022-12-12T09:16:34.454Z,4.80
2022-12-12T09:19:03.023Z,5.28
2022-12-12T09:21:31.291Z,5.43
2022-12-12T09:24:02.407Z,4.95
2022-12-12T09:26:30.834Z,5.03
2022-12-12T09:28:59.079Z,8.30
2022-12-12T09:31:27.248Z,3.58
2022-12-12T09:33:55.097Z,5.50
2022-12-12T09:36:23.242Z,5.85
2022-12-12T09:38:51.552Z,6.72
2022-12-12T09:41:25.131Z,5.40
2022-12-12T09:43:57.161Z,4.55
2022-12-12T09:46:33.922Z,4.78
2022-12-12T09:49:08.111Z,4.03
2022-12-12T09:51:36.782Z,4.82
2022-12-12T09:54:04.982Z,5.85
2022-12-12T09:56:43.034Z,6.03
2022-12-12T09:59:16.293Z,5.22
2022-12-12T10:01:59.642Z,5.47
2022-12-12T10:04:38.730Z,6.57
2022-12-12T10:07:15.975Z,5.70
2022-12-12T10:09:56.724Z,5.72
2022-12-12T10:12:27.498Z,6.68
2022-12-12T10:14:58.536Z,4.20
2022-12-12T10:17:31.771Z,5.00
2022-12-12T10:20:04.787Z,2.72
2022-12-12T10:22:39.087Z,3.53
2022-12-12T10:25:17.235Z,3.90
2022-12-12T10:27:46.708Z,4.50
2022-12-12T10:30:16.947Z,7.88
2022-12-12T10:33:03.037Z,14.93
2022-12-12T10:35:39.009Z,6.18
2022-12-12T10:38:24.492Z,3.30
2022-12-12T10:41:00.397Z,4.05
2022-12-12T10:43:34.976Z,4.40
2022-12-12T10:46:22.390Z,3.28
2022-12-12T10:48:51.487Z,3.03
2022-12-12T10:51:21.867Z,5.93
2022-12-12T10:53:50.319Z,11.75
2022-12-12T10:56:21.318Z,20.05
2022-12-12T10:58:56.288Z,10.02
2022-12-12T11:02:00.581Z,6.82
2022-12-12T11:04:18.369Z,6.22
2022-12-12T11:06:52.457Z,5.65
2022-12-12T11:09:22.716Z,5.13
2022-12-12T11:12:01.737Z,5.68
2022-12-12T11:14:35.565Z,6.25
2022-12-12T11:17:21.646Z,5.68
2022-12-12T11:19:49.708Z,6.35
2022-12-12T11:22:38.719Z,7.78
2022-12-12T11:25:08.156Z,6.40
2022-12-12T11:27:39.818Z,5.35
2022-12-12T11:30:24.157Z,4.90
2022-12-12T11:32:55.013Z,5.10
2022-12-12T11:35:26.528Z,6.03
2022-12-12T11:37:58.717Z,7.72
2022-12-12T11:40:28.609Z,7.57
2022-12-12T11:43:14.676Z,7.75
2022-12-12T11:45:57.335Z,7.90
2022-12-12T11:48:37.356Z,8.38
2022-12-12T11:51:07.591Z,8.63
2022-12-12T11:53:38.117Z,7.00
2022-12-12T11:56:28.648Z,8.27
2022-12-12T11:59:05.967Z,5.88
2022-12-12T12:01:44.680Z,4.35
2022-12-12T12:04:23.093Z,3.95
2022-12-12T12:07:08.746Z,3.95
2022-12-12T12:09:46.383Z,5.47
2022-12-12T12:12:17.877Z,5.07
2022-12-12T12:15:08.105Z,6.45
2022-12-12T12:18:02.024Z,4.22
2022-12-12T12:20:40.445Z,3.95
2022-12-12T12:23:23.682Z,4.03
2022-12-12T12:25:58.938Z,3.58
2022-12-12T12:28:45.969Z,3.50
2022-12-12T12:31:22.355Z,3.40
2022-12-12T12:34:03.222Z,3.25
2022-12-12T12:36:39.877Z,3.50
2022-12-12T12:41:53.670Z,4.05
2022-12-12T12:44:33.570Z,2.45
2022-12-12T12:47:11.370Z,3.53
2022-12-12T12:49:45.731Z,3.42
2022-12-12T12:52:17.827Z,4.35
2022-12-12T12:54:48.357Z,5.30
2022-12-12T12:57:19.890Z,13.13
2022-12-12T12:59:52.719Z,9.02
2022-12-12T13:02:27.645Z,6.10
2022-12-12T13:05:07.292Z,8.55
2022-12-12T13:07:43.299Z,6.88
2022-12-12T13:10:21.148Z,5.97
2022-12-12T13:12:55.101Z,4.18
2022-12-12T13:15:27.187Z,7.95
2022-12-12T13:18:05.315Z,6.60
2022-12-12T13:20:39.518Z,5.50
2022-12-12T13:23:34.051Z,6.45
2022-12-12T13:26:06.856Z,7.80
2022-12-12T13:28:41.020Z,7.93
2022-12-12T13:31:39.537Z,9.10
2022-12-12T13:34:10.641Z,6.25
2022-12-12T13:36:44.852Z,6.03
2022-12-12T13:39:27.002Z,5.90
2022-12-12T13:41:57.601Z,4.50
2022-12-12T13:44:38.532Z,4.40
2022-12-12T13:47:15.102Z,5.15
2022-12-12T13:52:26.421Z,11.45
2022-12-12T13:55:02.845Z,6.47
2022-12-12T13:57:34.031Z,7.88
2022-12-12T14:00:29.351Z,12.98
2022-12-12T14:03:14.394Z,26.60
2022-12-12T14:05:44.066Z,19.20
2022-12-12T14:08:24.208Z,13.95
2022-12-12T14:10:56.401Z,16.23
2022-12-12T14:13:41.675Z,17.00
2022-12-12T14:16:26.472Z,26.33
2022-12-12T14:19:02.213Z,14.52
2022-12-12T14:21:47.072Z,11.10
2022-12-12T14:25:03.533Z,14.18
2022-12-12T14:28:02.803Z,12.65
2022-12-12T14:30:55.236Z,10.57
2022-12-12T14:33:59.892Z,10.73
2022-12-12T14:36:54.142Z,11.30
2022-12-12T14:39:39.690Z,7.72
2022-12-12T14:42:16.151Z,9.98
2022-12-12T14:44:50.704Z,7.70
2022-12-12T14:47:19.522Z,9.38
2022-12-12T14:49:47.851Z,10.27
2022-12-12T14:52:19.816Z,9.27
2022-12-12T14:54:49.213Z,8.25
2022-12-12T14:57:23.303Z,10.38
2022-12-12T14:59:52.862Z,11.63
2022-12-12T15:02:24.621Z,9.35
2022-12-12T15:05:00.880Z,10.80
2022-12-12T15:07:33.425Z,10.27
2022-12-12T15:10:01.442Z,9.80
2022-12-12T15:12:34.380Z,9.45
2022-12-12T15:15:05.402Z,7.85
2022-12-12T15:17:40.850Z,6.63
2022-12-12T15:20:16.365Z,8.15
2022-12-12T15:22:54.311Z,9.77
2022-12-12T15:25:24.343Z,6.32
2022-12-12T15:27:56.296Z,8.90
2022-12-12T15:30:32.522Z,8.63
2022-12-12T15:33:01.698Z,8.07
2022-12-12T15:35:29.793Z,7.85
2022-12-12T15:37:59.003Z,8.00
2022-12-12T15:40:30.215Z,7.97
2022-12-12T15:43:00.412Z,7.38
2022-12-12T15:45:35.713Z,5.63
2022-12-12T15:48:04.647Z,5.43
2022-12-12T15:50:47.238Z,8.35
2022-12-12T15:53:21.158Z,7.30
2022-12-12T15:55:59.646Z,6.32
2022-12-12T15:58:30.247Z,9.80
2022-12-12T16:01:20.855Z,8.93
2022-12-12T16:03:58.696Z,5.45
2022-12-12T16:06:28.294Z,7.15
2022-12-12T16:09:08.126Z,6.63
2022-12-12T16:11:41.870Z,7.18
2022-12-12T16:14:42.902Z,6.95
2022-12-12T16:17:16.078Z,6.32
2022-12-12T16:19:47.465Z,6.47
2022-12-12T16:22:24.164Z,8.35
2022-12-12T16:24:53.634Z,8.15
2022-12-12T16:27:21.731Z,9.50
2022-12-12T16:29:49.726Z,6.65
2022-12-12T16:32:24.656Z,9.85
2022-12-12T16:34:54.741Z,13.55
2022-12-12T16:37:22.673Z,11.52
2022-12-12T16:39:50.328Z,9.60
2022-12-12T16:42:21.104Z,12.57
2022-12-12T16:44:48.869Z,9.35
2022-12-12T16:47:20.838Z,11.43
2022-12-12T16:49:49.165Z,10.43
2022-12-12T16:52:19.732Z,13.45
2022-12-12T16:54:53.263Z,13.88
2022-12-12T16:57:22.620Z,14.60
2022-12-12T16:59:50.365Z,15.32
2022-12-12T17:02:21.846Z,12.18
2022-12-12T17:04:50.754Z,12.75
2022-12-12T17:07:18.602Z,14.23
2022-12-12T17:09:47.543Z,17.13
2022-12-12T17:12:16.172Z,17.20
2022-12-12T17:14:44.631Z,60.35
2022-12-12T17:17:12.736Z,140.85
2022-12-12T17:19:42.189Z,86.25
2022-12-12T17:22:10.016Z,77.65
2022-12-12T17:24:37.970Z,86.25
2022-12-12T17:27:05.837Z,62.00
2022-12-12T17:29:33.759Z,59.00
2022-12-12T17:32:01.889Z,29.20
2022-12-12T17:34:29.970Z,32.08
2022-12-12T17:36:59.797Z,25.10
2022-12-12T17:39:28.100Z,23.10
2022-12-12T17:41:57.786Z,23.40
2022-12-12T17:44:26.131Z,22.92
2022-12-12T17:46:54.198Z,21.33
2022-12-12T17:49:22.340Z,20.33
2022-12-12T17:51:50.419Z,21.23
2022-12-12T17:54:20.396Z,23.23
2022-12-12T17:56:48.857Z,26.92
2022-12-12T17:59:17.061Z,24.60
2022-12-12T18:01:45.360Z,23.48
2022-12-12T18:04:13.578Z,25.90
2022-12-12T18:06:41.828Z,32.17
2022-12-12T18:09:09.847Z,27.05
2022-12-12T18:11:42.348Z,28.17
2022-12-12T18:14:16.203Z,30.48
2022-12-12T18:16:48.148Z,32.38
2022-12-12T18:19:16.385Z,27.65
2022-12-12T18:22:00.414Z,31.98
2022-12-12T18:24:33.268Z,28.70
2022-12-12T18:27:03.803Z,27.08
2022-12-12T18:29:32.484Z,29.73
2022-12-12T18:32:00.557Z,23.80
2022-12-12T18:34:28.651Z,24.48
2022-12-12T18:36:56.600Z,23.30
2022-12-12T18:39:24.727Z,20.52
2022-12-12T18:41:53.212Z,18.02
2022-12-12T18:44:23.249Z,15.60
2022-12-12T18:46:52.288Z,14.65
2022-12-12T18:49:20.499Z,17.23
2022-12-12T18:51:48.567Z,13.98
2022-12-12T18:54:17.296Z,16.33
2022-12-12T18:56:46.399Z,17.38
2022-12-12T18:59:15.435Z,24.05
2022-12-12T19:01:45.430Z,17.38
2022-12-12T19:04:22.555Z,17.17
2022-12-12T19:06:53.144Z,19.67
2022-12-12T19:09:22.489Z,17.50
2022-12-12T19:11:50.493Z,18.10
2022-12-12T19:14:18.685Z,20.95
2022-12-12T19:16:48.789Z,17.52
2022-12-12T19:19:16.998Z,17.25
2022-12-12T19:21:45.300Z,23.27
2022-12-12T19:24:13.448Z,19.35
2022-12-12T19:26:44.052Z,19.40
2022-12-12T19:29:14.165Z,18.63
2022-12-12T19:31:42.493Z,16.95
2022-12-12T19:34:17.508Z,15.32
2022-12-12T19:36:45.862Z,17.10
2022-12-12T19:39:14.046Z,17.40
2022-12-12T19:41:42.581Z,14.02
2022-12-12T19:44:13.287Z,15.77
2022-12-12T19:46:42.997Z,14.65
2022-12-12T19:49:13.448Z,22.88
2022-12-12T19:51:45.211Z,23.58
2022-12-12T19:54:16.085Z,25.95
2022-12-12T19:56:45.375Z,30.13
2022-12-12T19:59:14.617Z,27.67
2022-12-12T20:01:43.620Z,27.92
2022-12-12T20:04:15.948Z,25.75
2022-12-12T20:06:46.558Z,25.92
2022-12-12T20:09:16.556Z,19.85
2022-12-12T20:11:45.691Z,18.20
2022-12-12T20:14:15.276Z,18.77
2022-12-12T20:16:44.401Z,16.42
2022-12-12T20:19:14.050Z,12.00
2022-12-12T20:22:03.635Z,15.15
2022-12-12T20:24:37.518Z,16.58
2022-12-12T20:27:06.124Z,16.35
2022-12-12T20:29:34.138Z,23.30
2022-12-12T20:32:03.190Z,23.17
2022-12-12T20:34:31.564Z,21.38
2022-12-12T20:37:01.223Z,13.10
2022-12-12T20:39:29.793Z,13.30
2022-12-12T20:41:58.043Z,12.35
2022-12-12T20:44:26.353Z,9.10
2022-12-12T20:46:54.877Z,10.07
2022-12-12T20:49:24.303Z,9.18
2022-12-12T20:51:56.303Z,7.50
2022-12-12T20:54:28.717Z,8.60
2022-12-12T20:56:57.871Z,9.23
2022-12-12T20:59:27.220Z,9.15
2022-12-12T21:01:55.817Z,8.75
2022-12-12T21:04:24.467Z,9.30
2022-12-12T21:06:52.940Z,9.32
2022-12-12T21:09:25.598Z,11.25
2022-12-12T21:11:57.022Z,9.65
2022-12-12T21:14:25.716Z,11.23
2022-12-12T21:16:53.914Z,9.40
2022-12-12T21:19:23.894Z,10.43
2022-12-12T21:21:52.653Z,9.50
2022-12-12T21:24:21.461Z,9.23
2022-12-12T21:26:49.762Z,9.55
2022-12-12T21:29:19.464Z,9.77
2022-12-12T21:31:51.447Z,9.60
2022-12-12T21:34:22.242Z,10.23
2022-12-12T21:36:54.678Z,10.95
2022-12-12T21:39:28.648Z,10.13
2022-12-12T21:41:56.929Z,10.30
2022-12-12T21:44:26.900Z,9.90
2022-12-12T21:46:55.286Z,8.20
2022-12-12T21:49:27.008Z,8.85
2022-12-12T21:51:56.681Z,10.95
2022-12-12T21:54:25.048Z,9.98
2022-12-12T21:56:53.437Z,8.00
2022-12-12T21:59:21.639Z,11.02
2022-12-12T22:01:52.086Z,9.70
2022-12-12T22:04:20.007Z,9.60
2022-12-12T22:06:48.132Z,9.05
2022-12-12T22:09:16.308Z,9.30
2022-12-12T22:11:48.260Z,8.80
2022-12-12T22:14:20.139Z,10.38
2022-12-12T22:16:48.174Z,9.02
2022-12-12T22:19:20.949Z,10.00
2022-12-12T22:21:49.248Z,8.02
2022-12-12T22:24:17.727Z,8.35
2022-12-12T22:26:47.890Z,11.40
2022-12-12T22:29:19.097Z,10.55
2022-12-12T22:31:50.558Z,14.20
2022-12-12T22:34:22.508Z,12.13
2022-12-12T22:36:53.202Z,12.55
2022-12-12T22:39:23.707Z,15.88
2022-12-12T22:41:52.664Z,14.27
2022-12-12T22:44:22.089Z,17.17
2022-12-12T22:46:51.611Z,13.02
2022-12-12T22:49:25.941Z,16.65
2022-12-12T22:51:54.974Z,17.13
2022-12-12T22:54:22.797Z,15.27
2022-12-12T22:56:51.027Z,14.45
2022-12-12T22:59:19.138Z,14.02
2022-12-12T23:01:47.094Z,15.38
2022-12-12T23:04:15.830Z,12.80
2022-12-12T23:06:45.355Z,10.35
2022-12-12T23:09:16.317Z,10.30
2022-12-12T23:11:45.917Z,9.70
2022-12-12T23:14:16.419Z,8.18
2022-12-12T23:16:44.808Z,5.80
2022-12-12T23:19:15.265Z,7.28
2022-12-12T23:21:44.822Z,8.57
2022-12-12T23:24:12.829Z,7.13
2022-12-12T23:26:40.933Z,6.53
2022-12-12T23:29:13.033Z,7.47
2022-12-12T23:31:41.037Z,7.25
2022-12-12T23:34:13.615Z,7.72
2022-12-12T23:36:42.614Z,6.47
2022-12-12T23:39:13.769Z,11.27
2022-12-12T23:41:45.294Z,7.28
2022-12-12T23:44:14.894Z,7.75
2022-12-12T23:46:43.293Z,8.43
2022-12-12T23:49:16.004Z,8.15
2022-12-12T23:51:45.382Z,7.25
2022-12-12T23:54:16.382Z,5.78
2022-12-12T23:56:45.148Z,8.57
2022-12-12T23:59:17.500Z,6.93
